Time;durP1;ratioP1;P1;durP2;ratioP2;P2;SDS_P1;SDS_P2;PMS_P1;PMS_P2;Temp;Humidity;BMP_temperature;BMP_pressure;BME280_temperature;BME280_humidity;BME280_pressure;Samples;Min_cycle;Max_cycle;Signal;HPM_P1;HPM_P2
2021/09/28 00:01:53;;;;;;;2.08;1.98;;;23.30;59.30;;;;;;5022005;28;20095;-66
2021/09/28 00:04:20;;;;;;;1.77;1.67;;;23.30;59.20;;;;;;5029579;28;20103;-66
2021/09/28 00:06:47;;;;;;;1.90;1.80;;;23.30;59.70;;;;;;5031173;28;20129;-66
2021/09/28 00:09:14;;;;;;;1.90;1.80;;;23.30;59.20;;;;;;5030843;28;20073;-66
2021/09/28 00:11:42;;;;;;;2.08;1.98;;;23.30;59.20;;;;;;5020767;28;20136;-66
2021/09/28 00:14:09;;;;;;;2.03;1.92;;;23.30;59.20;;;;;;5030957;28;20129;-66
2021/09/28 00:16:36;;;;;;;2.03;1.92;;;23.30;59.20;;;;;;5030863;28;20457;-66
2021/09/28 00:19:03;;;;;;;1.85;1.75;;;23.30;59.20;;;;;;5031114;28;20064;-66
2021/09/28 00:21:31;;;;;;;1.80;1.70;;;23.30;59.20;;;;;;5020687;28;20160;-66
2021/09/28 00:23:58;;;;;;;2.05;1.95;;;23.30;59.20;;;;;;5030576;28;20080;-66
2021/09/28 00:26:25;;;;;;;2.10;2.00;;;23.30;59.20;;;;;;5031084;28;20073;-66
2021/09/28 00:28:52;;;;;;;2.08;1.98;;;23.30;59.20;;;;;;5030867;28;20049;-66
2021/09/28 00:31:19;;;;;;;2.03;1.92;;;23.30;59.20;;;;;;5019960;28;20136;-66
2021/09/28 00:33:46;;;;;;;1.80;1.70;;;23.30;59.20;;;;;;5030611;28;20410;-66
2021/09/28 00:36:13;;;;;;;1.95;1.83;;;23.20;59.20;;;;;;5030548;28;20525;-66
2021/09/28 00:38:40;;;;;;;2.42;1.80;;;23.20;59.10;;;;;;5030538;28;20136;-66
2021/09/28 00:41:08;;;;;;;1.95;1.85;;;23.30;59.20;;;;;;5019189;28;20108;-66
2021/09/28 00:43:47;;;;;;;2.03;1.90;;;23.20;59.10;;;;;;5030143;28;20049;-66
2021/09/28 00:46:16;;;;;;;1.80;1.70;;;23.30;59.20;;;;;;5030192;28;20065;-66
2021/09/28 00:48:44;;;;;;;1.98;1.88;;;23.20;59.20;;;;;;5030478;28;20053;-66
2021/09/28 00:51:12;;;;;;;1.83;1.73;;;23.20;59.20;;;;;;5019976;28;20137;-66
2021/09/28 00:53:40;;;;;;;2.20;2.10;;;23.20;59.20;;;;;;5030152;28;20545;-66
2021/09/28 00:56:10;;;;;;;1.92;1.83;;;23.20;59.20;;;;;;5029958;28;20144;-66
2021/09/28 00:58:39;;;;;;;2.05;1.95;;;23.20;59.20;;;;;;5030028;28;20053;-66
2021/09/28 01:01:09;;;;;;;2.10;2.00;;;23.20;59.20;;;;;;5019120;28;20462;-66
2021/09/28 01:03:37;;;;;;;1.92;1.83;;;23.20;59.20;;;;;;5028957;28;20566;-66
2021/09/28 01:06:05;;;;;;;1.85;1.75;;;23.20;59.20;;;;;;5028703;28;20107;-66
2021/09/28 01:08:33;;;;;;;1.95;1.85;;;23.20;59.20;;;;;;5029820;28;20081;-66
2021/09/28 01:11:02;;;;;;;1.73;1.63;;;23.20;59.10;;;;;;5018823;28;20049;-66
2021/09/28 01:13:30;;;;;;;1.80;1.70;;;23.30;59.20;;;;;;5030202;28;20049;-66
2021/09/28 01:16:08;;;;;;;2.00;1.90;;;23.30;59.10;;;;;;5029646;28;20449;-66
2021/09/28 01:18:39;;;;;;;2.03;1.88;;;23.20;59.00;;;;;;5029902;28;20049;-66
2021/09/28 01:21:10;;;;;;;1.85;1.75;;;23.30;59.10;;;;;;5017501;28;20490;-66
2021/09/28 01:23:37;;;;;;;1.60;1.50;;;23.30;59.10;;;;;;5028363;28;20565;-66
2021/09/28 01:26:05;;;;;;;1.88;1.65;;;23.30;59.10;;;;;;5029333;28;20136;-66
2021/09/28 01:28:32;;;;;;;1.80;1.70;;;23.30;59.00;;;;;;5029447;28;20084;-66
2021/09/28 01:30:59;;;;;;;1.65;1.55;;;23.30;59.00;;;;;;5019262;28;20486;-65
2021/09/28 01:33:26;;;;;;;1.67;1.58;;;23.30;59.00;;;;;;5029617;28;20049;-66
2021/09/28 01:35:54;;;;;;;1.80;1.70;;;23.30;59.00;;;;;;5029677;28;20069;-66
2021/09/28 01:38:21;;;;;;;2.00;1.90;;;23.30;59.00;;;;;;5028140;28;20049;-66
2021/09/28 01:40:49;;;;;;;2.05;1.95;;;23.30;59.00;;;;;;5022621;28;20053;-66
2021/09/28 01:43:16;;;;;;;2.03;1.92;;;23.30;59.00;;;;;;5027013;28;20054;-66
2021/09/28 01:45:43;;;;;;;1.90;1.80;;;23.30;59.00;;;;;;5029437;28;20055;-66
2021/09/28 01:48:11;;;;;;;2.00;1.90;;;23.30;59.00;;;;;;5028992;28;20076;-66
2021/09/28 01:50:40;;;;;;;1.95;1.85;;;23.30;59.00;;;;;;5019972;28;20805;-66
2021/09/28 01:53:07;;;;;;;1.60;1.50;;;23.30;59.00;;;;;;5025098;28;20160;-66
2021/09/28 01:55:34;;;;;;;2.03;1.92;;;23.20;59.00;;;;;;5028877;28;20140;-66
2021/09/28 01:58:01;;;;;;;1.88;1.77;;;23.20;59.00;;;;;;5029204;28;20459;-66
2021/09/28 02:00:29;;;;;;;2.28;2.08;;;23.20;59.00;;;;;;5020041;28;20084;-68
2021/09/28 02:02:56;;;;;;;1.70;1.60;;;23.20;59.00;;;;;;5026134;28;20041;-66
2021/09/28 02:05:24;;;;;;;1.50;1.40;;;23.20;59.00;;;;;;5028842;28;20085;-66
2021/09/28 02:07:51;;;;;;;1.90;1.80;;;23.20;59.00;;;;;;5026797;28;20593;-66
2021/09/28 02:10:20;;;;;;;2.03;1.88;;;23.20;59.00;;;;;;5021365;28;20050;-66
2021/09/28 02:12:47;;;;;;;1.73;1.63;;;23.20;59.00;;;;;;5026306;28;20052;-66
2021/09/28 02:15:14;;;;;;;1.95;1.85;;;23.20;59.00;;;;;;5028707;28;20081;-66
2021/09/28 02:17:41;;;;;;;1.88;1.77;;;23.20;59.00;;;;;;5028715;28;20041;-66
2021/09/28 02:20:09;;;;;;;2.17;1.60;;;23.20;59.00;;;;;;5023165;28;20136;-66
2021/09/28 02:22:36;;;;;;;1.70;1.60;;;23.20;59.00;;;;;;5021894;28;20132;-66
2021/09/28 02:25:05;;;;;;;1.80;1.70;;;23.20;59.00;;;;;;5028678;28;20053;-66
2021/09/28 02:27:32;;;;;;;1.70;1.60;;;23.20;59.50;;;;;;5028750;28;20186;-66
2021/09/28 02:30:00;;;;;;;1.75;1.65;;;23.20;59.00;;;;;;5024289;28;20144;-65
2021/09/28 02:32:27;;;;;;;1.80;1.70;;;23.20;58.90;;;;;;5021252;28;20053;-66
2021/09/28 02:34:54;;;;;;;1.63;1.52;;;23.20;58.90;;;;;;5028929;28;20126;-66
2021/09/28 02:37:21;;;;;;;1.88;1.77;;;23.20;58.90;;;;;;5027848;28;20060;-66
2021/09/28 02:39:48;;;;;;;2.00;1.88;;;23.20;58.80;;;;;;5022303;28;20084;-66
2021/09/28 02:42:15;;;;;;;1.83;1.73;;;23.20;58.80;;;;;;5020687;28;20136;-66
2021/09/28 02:44:42;;;;;;;1.90;1.80;;;23.20;58.80;;;;;;5028048;28;20053;-66
2021/09/28 02:47:09;;;;;;;2.25;2.03;;;23.30;58.90;;;;;;5028323;28;20220;-66
2021/09/28 02:49:36;;;;;;;1.83;1.73;;;23.20;58.80;;;;;;5025190;28;20103;-66
2021/09/28 02:52:04;;;;;;;1.80;1.70;;;23.20;58.80;;;;;;5018602;28;20103;-66
2021/09/28 02:54:31;;;;;;;2.00;1.90;;;23.20;58.80;;;;;;5028124;28;20053;-66
2021/09/28 02:56:58;;;;;;;2.05;1.90;;;23.20;58.80;;;;;;5027875;28;20088;-66
2021/09/28 02:59:26;;;;;;;1.60;1.52;;;23.20;58.70;;;;;;5027938;28;20483;-66
2021/09/28 03:01:53;;;;;;;2.03;1.92;;;23.20;58.70;;;;;;5018758;28;20077;-65
2021/09/28 03:04:20;;;;;;;1.80;1.70;;;23.20;58.80;;;;;;5027828;28;20179;-66
2021/09/28 03:06:47;;;;;;;1.90;1.80;;;23.20;58.80;;;;;;5028176;28;20268;-66
2021/09/28 03:09:15;;;;;;;2.00;1.90;;;23.20;58.80;;;;;;5027533;28;20076;-66
2021/09/28 03:11:42;;;;;;;1.90;1.80;;;23.20;58.80;;;;;;5015422;28;20499;-67
2021/09/28 03:14:09;;;;;;;2.20;2.10;;;23.20;58.80;;;;;;5027462;28;20056;-66
2021/09/28 03:16:36;;;;;;;2.38;2.17;;;23.20;58.80;;;;;;5026874;28;20463;-66
2021/09/28 03:19:03;;;;;;;1.38;1.38;;;23.20;58.80;;;;;;5026844;28;20056;-66
2021/09/28 03:21:31;;;;;;;1.90;1.80;;;23.20;58.80;;;;;;5014796;28;20148;-66
2021/09/28 03:23:58;;;;;;;2.15;1.95;;;23.20;58.80;;;;;;5027718;28;20053;-66
2021/09/28 03:26:25;;;;;;;1.42;1.33;;;23.20;58.80;;;;;;5027684;28;20075;-66
2021/09/28 03:28:53;;;;;;;2.00;1.90;;;23.20;58.80;;;;;;5027000;28;20045;-66
2021/09/28 03:31:20;;;;;;;2.47;2.28;;;23.20;58.80;;;;;;5014981;28;20051;-66
2021/09/28 03:33:47;;;;;;;2.05;1.92;;;23.20;58.80;;;;;;5027109;28;20092;-66
2021/09/28 03:36:14;;;;;;;2.25;2.05;;;23.20;58.90;;;;;;5026662;28;20573;-66
2021/09/28 03:38:41;;;;;;;2.05;1.95;;;23.20;58.80;;;;;;5024919;28;20041;-66
2021/09/28 03:41:08;;;;;;;2.40;2.30;;;23.20;58.90;;;;;;5016761;28;20050;-66
2021/09/28 03:43:35;;;;;;;1.90;1.80;;;23.20;58.90;;;;;;5026900;28;20434;-66
2021/09/28 03:46:03;;;;;;;2.42;2.22;;;23.20;58.90;;;;;;5027785;28;20483;-66
2021/09/28 03:48:30;;;;;;;2.20;2.10;;;23.20;58.90;;;;;;5026436;28;20133;-66
2021/09/28 03:50:58;;;;;;;2.10;1.90;;;23.20;58.90;;;;;;5017829;28;20465;-65
2021/09/28 03:53:25;;;;;;;2.08;1.98;;;23.20;58.90;;;;;;5027275;28;20577;-66
2021/09/28 03:55:52;;;;;;;2.47;2.28;;;23.20;58.80;;;;;;5027496;28;20133;-66
2021/09/28 03:58:20;;;;;;;2.65;2.45;;;23.20;58.80;;;;;;5027071;28;20053;-66
2021/09/28 04:00:47;;;;;;;2.00;1.90;;;23.20;58.80;;;;;;5019749;28;20132;-66
2021/09/28 04:03:14;;;;;;;1.98;1.88;;;23.20;58.80;;;;;;5024022;28;20056;-66
2021/09/28 04:05:41;;;;;;;2.22;2.13;;;23.20;58.70;;;;;;5027268;28;20099;-66
2021/09/28 04:08:08;;;;;;;1.85;1.75;;;23.20;58.70;;;;;;5009339;28;20136;-66
2021/09/28 04:10:36;;;;;;;2.10;1.95;;;23.20;58.70;;;;;;5019994;28;20417;-65
2021/09/28 04:13:07;;;;;;;2.08;1.98;;;23.20;58.70;;;;;;5033027;28;20132;-66
2021/09/28 04:15:39;;;;;;;1.90;1.80;;;23.20;58.70;;;;;;5032046;28;20038;-66
2021/09/28 04:18:09;;;;;;;1.80;1.70;;;23.20;58.70;;;;;;5026923;28;20136;-66
2021/09/28 04:20:41;;;;;;;2.15;2.00;;;23.20;58.70;;;;;;5018885;28;20325;-66
2021/09/28 04:23:11;;;;;;;1.80;1.70;;;23.20;58.60;;;;;;5024450;28;20158;-66
2021/09/28 04:25:39;;;;;;;2.45;2.35;;;23.20;58.60;;;;;;5026969;28;20140;-66
2021/09/28 04:28:10;;;;;;;2.38;2.08;;;23.20;58.70;;;;;;5026229;28;20486;-66
2021/09/28 04:30:37;;;;;;;2.10;2.00;;;23.20;58.60;;;;;;5018138;28;20096;-66
2021/09/28 04:33:05;;;;;;;2.53;2.33;;;23.20;58.70;;;;;;5026409;28;20160;-66
2021/09/28 04:35:32;;;;;;;2.00;1.90;;;23.20;58.70;;;;;;5026381;28;20139;-66
2021/09/28 04:37:59;;;;;;;2.10;2.00;;;23.20;58.70;;;;;;5039774;28;20235;-66
2021/09/28 04:40:27;;;;;;;2.20;2.10;;;23.20;58.70;;;;;;5026899;28;20049;-66
2021/09/28 04:42:54;;;;;;;2.20;2.10;;;23.20;58.70;;;;;;5055183;28;20080;-66
2021/09/28 04:45:21;;;;;;;2.08;1.98;;;23.20;58.70;;;;;;5041928;28;20142;-66
2021/09/28 04:47:48;;;;;;;2.35;2.15;;;23.20;58.70;;;;;;5030513;28;20111;-66
2021/09/28 04:50:16;;;;;;;2.15;1.95;;;23.20;58.70;;;;;;5026788;28;20045;-65
2021/09/28 04:52:43;;;;;;;2.20;2.00;;;23.20;58.70;;;;;;5026856;28;20060;-66
2021/09/28 04:55:10;;;;;;;2.47;2.33;;;23.20;58.70;;;;;;5028512;28;20132;-66
2021/09/28 04:57:37;;;;;;;2.00;1.90;;;23.20;58.70;;;;;;5028459;28;20924;-66
2021/09/28 05:00:06;;;;;;;2.08;1.98;;;23.20;58.70;;;;;;5040047;28;20053;-66
2021/09/28 05:02:33;;;;;;;2.33;2.13;;;23.20;58.70;;;;;;5024325;28;20048;-65
2021/09/28 05:05:00;;;;;;;2.40;2.20;;;23.20;58.70;;;;;;5028829;28;20068;-66
2021/09/28 05:07:27;;;;;;;2.20;2.10;;;23.20;58.70;;;;;;5029710;28;20124;-66
2021/09/28 05:09:54;;;;;;;2.45;2.25;;;23.20;58.70;;;;;;5029559;28;20053;-66
2021/09/28 05:12:22;;;;;;;2.40;2.20;;;23.20;58.70;;;;;;5022860;28;20052;-66
2021/09/28 05:14:49;;;;;;;2.50;2.30;;;23.20;58.70;;;;;;5022992;28;20128;-66
2021/09/28 05:17:16;;;;;;;2.88;2.67;;;23.20;58.60;;;;;;5009995;28;20120;-66
2021/09/28 05:19:44;;;;;;;5.40;2.63;;;23.20;58.60;;;;;;5022425;28;20172;-66
2021/09/28 05:22:11;;;;;;;2.30;2.13;;;23.20;58.60;;;;;;5016350;28;20477;-66
2021/09/28 05:24:38;;;;;;;2.80;2.60;;;23.20;58.50;;;;;;5027581;28;20060;-66
2021/09/28 05:27:05;;;;;;;2.10;2.00;;;23.30;58.60;;;;;;5023765;28;20083;-66
2021/09/28 05:29:34;;;;;;;2.42;2.22;;;23.30;58.60;;;;;;5019132;28;20064;-65
2021/09/28 05:32:02;;;;;;;2.70;2.50;;;23.20;58.70;;;;;;5021194;28;20150;-64
2021/09/28 05:34:29;;;;;;;2.63;2.42;;;23.30;59.00;;;;;;5021618;28;20124;-64
2021/09/28 05:36:56;;;;;;;2.72;2.53;;;23.20;59.00;;;;;;5020414;28;20128;-66
2021/09/28 05:39:23;;;;;;;5.20;3.17;;;23.20;59.20;;;;;;5024791;28;20045;-67
2021/09/28 05:41:50;;;;;;;2.53;2.33;;;23.30;59.30;;;;;;5007029;28;20152;-65
2021/09/28 05:44:17;;;;;;;2.88;2.67;;;23.30;59.30;;;;;;5049931;28;20243;-63
2021/09/28 05:46:44;;;;;;;2.70;2.50;;;23.30;59.40;;;;;;5009575;28;20049;-65
2021/09/28 05:49:11;;;;;;;2.60;2.40;;;23.30;59.40;;;;;;5019751;28;20721;-64
2021/09/28 05:51:44;;;;;;;2.40;2.30;;;23.30;59.30;;;;;;5010996;28;20056;-63
2021/09/28 05:54:17;;;;;;;2.90;2.70;;;23.40;59.30;;;;;;5022563;28;20069;-64
2021/09/28 05:56:49;;;;;;;2.70;2.50;;;23.40;59.10;;;;;;5018945;28;20125;-64
2021/09/28 05:59:16;;;;;;;2.72;2.53;;;23.40;59.00;;;;;;5020325;28;20136;-66
2021/09/28 06:01:44;;;;;;;2.90;2.70;;;23.40;58.90;;;;;;5004299;28;20075;-65
2021/09/28 06:04:11;;;;;;;2.83;2.63;;;23.50;59.00;;;;;;5020584;28;20099;-65
2021/09/28 06:06:38;;;;;;;3.20;2.70;;;23.50;58.90;;;;;;5023034;28;20053;-65
2021/09/28 06:09:06;;;;;;;2.85;2.65;;;23.50;58.90;;;;;;5018293;28;20132;-64
2021/09/28 06:11:34;;;;;;;3.03;2.72;;;23.40;59.00;;;;;;5007822;28;20050;-66
2021/09/28 06:14:01;;;;;;;2.63;2.45;;;23.40;59.10;;;;;;5023058;28;20041;-67
2021/09/28 06:16:28;;;;;;;3.13;2.85;;;23.50;59.20;;;;;;5019513;28;20171;-65
2021/09/28 06:18:55;;;;;;;2.85;2.65;;;23.40;59.20;;;;;;5022345;28;20046;-67
2021/09/28 06:21:22;;;;;;;3.92;2.40;;;23.50;59.30;;;;;;5005594;28;20777;-67
2021/09/28 06:23:49;;;;;;;2.70;2.50;;;23.50;59.40;;;;;;5017458;28;20132;-63
2021/09/28 06:26:16;;;;;;;2.70;2.50;;;23.50;59.40;;;;;;5019989;28;20136;-67
2021/09/28 06:28:43;;;;;;;2.80;2.58;;;23.60;59.50;;;;;;5022052;28;20579;-67
2021/09/28 06:31:11;;;;;;;2.88;2.55;;;23.60;59.60;;;;;;5009825;28;20080;-67
2021/09/28 06:33:38;;;;;;;2.88;2.67;;;23.60;59.50;;;;;;5017401;28;20423;-66
2021/09/28 06:36:06;;;;;;;2.90;2.40;;;23.60;59.50;;;;;;5022285;28;20049;-65
2021/09/28 06:38:33;;;;;;;5.72;3.38;;;23.60;59.40;;;;;;5026605;28;20099;-67
2021/09/28 06:41:00;;;;;;;2.70;2.50;;;23.70;59.40;;;;;;5008353;28;20500;-66
2021/09/28 06:43:28;;;;;;;4.07;2.83;;;23.60;59.50;;;;;;5017980;28;20061;-66
2021/09/28 06:45:55;;;;;;;5.70;3.00;;;23.60;59.30;;;;;;5021563;28;20051;-66
2021/09/28 06:48:22;;;;;;;3.47;2.72;;;23.70;59.30;;;;;;5023153;28;20081;-66
2021/09/28 06:50:50;;;;;;;2.90;2.67;;;23.70;59.30;;;;;;5010808;28;20982;-67
2021/09/28 06:53:17;;;;;;;4.45;2.95;;;23.70;59.30;;;;;;5014066;28;20049;-65
2021/09/28 06:55:45;;;;;;;2.88;2.67;;;23.70;59.20;;;;;;5022116;28;20099;-65
2021/09/28 06:58:15;;;;;;;3.67;2.70;;;23.70;59.10;;;;;;5019423;28;20088;-67
2021/09/28 07:00:42;;;;;;;2.83;2.63;;;23.70;59.20;;;;;;5011091;28;20080;-65
2021/09/28 07:03:09;;;;;;;2.70;2.50;;;23.80;59.20;;;;;;5015113;28;20042;-66
2021/09/28 07:05:36;;;;;;;2.80;2.50;;;23.80;59.20;;;;;;5024797;28;20417;-69
2021/09/28 07:08:04;;;;;;;3.10;2.80;;;23.80;59.20;;;;;;5025604;28;20609;-67
2021/09/28 07:10:31;;;;;;;3.45;3.13;;;23.80;59.10;;;;;;5012556;28;20054;-68
2021/09/28 07:12:58;;;;;;;3.95;3.47;;;23.80;59.00;;;;;;5012755;28;20137;-68
2021/09/28 07:15:26;;;;;;;5.85;3.15;;;23.80;59.00;;;;;;5020376;28;20164;-69
2021/09/28 07:17:54;;;;;;;3.38;3.00;;;23.90;58.90;;;;;;5024350;28;20502;-68
2021/09/28 07:20:21;;;;;;;3.40;3.10;;;23.90;58.80;;;;;;5019791;28;20152;-69
2021/09/28 07:22:49;;;;;;;3.55;3.25;;;23.90;58.80;;;;;;5015271;28;20136;-70
2021/09/28 07:25:16;;;;;;;3.13;2.92;;;23.90;58.80;;;;;;5025964;28;20042;-69
2021/09/28 07:28:00;;;;;;;3.88;2.90;;;23.90;58.70;;;;;;5021443;28;20045;-70
2021/09/28 07:30:29;;;;;;;3.20;2.90;;;23.90;58.70;;;;;;5017929;28;20140;-71
2021/09/28 07:32:57;;;;;;;3.80;3.50;;;23.90;58.70;;;;;;5010046;28;20088;-71
2021/09/28 07:35:24;;;;;;;3.30;3.10;;;24.00;58.80;;;;;;5027356;28;20111;-69
2021/09/28 07:37:52;;;;;;;3.22;2.97;;;24.00;58.80;;;;;;5027283;28;20140;-69
2021/09/28 07:40:19;;;;;;;3.20;3.00;;;24.00;58.70;;;;;;5015630;28;20069;-68
2021/09/28 07:42:47;;;;;;;3.03;2.83;;;24.00;58.60;;;;;;5019713;28;20045;-70
2021/09/28 07:45:15;;;;;;;3.90;3.35;;;24.00;58.60;;;;;;5025816;28;20056;-69
2021/09/28 07:47:42;;;;;;;4.15;3.08;;;24.10;58.70;;;;;;5026549;28;20045;-67
2021/09/28 07:50:09;;;;;;;3.78;3.38;;;24.10;58.70;;;;;;5008794;28;20144;-67
2021/09/28 07:52:36;;;;;;;3.80;3.47;;;24.10;58.70;;;;;;5015942;28;20558;-69
2021/09/28 07:55:04;;;;;;;3.40;3.10;;;24.10;58.80;;;;;;5019942;28;20041;-70
2021/09/28 07:57:31;;;;;;;5.53;3.67;;;24.10;58.80;;;;;;5016864;28;20077;-68
2021/09/28 07:59:58;;;;;;;5.25;3.50;;;24.10;58.80;;;;;;5012533;28;20136;-68
2021/09/28 08:02:25;;;;;;;4.22;3.47;;;24.10;58.80;;;;;;5012187;28;20176;-69
2021/09/28 08:04:53;;;;;;;3.65;3.35;;;24.20;58.70;;;;;;5021065;28;20072;-69
2021/09/28 08:07:20;;;;;;;5.78;3.35;;;24.20;58.60;;;;;;5022942;28;20147;-68
2021/09/28 08:09:48;;;;;;;4.43;3.58;;;24.20;58.60;;;;;;5016952;28;21107;-66
2021/09/28 08:12:15;;;;;;;4.90;3.28;;;24.20;58.50;;;;;;5012214;28;20054;-70
2021/09/28 08:14:42;;;;;;;3.67;3.38;;;24.20;58.50;;;;;;5022965;28;20120;-68
2021/09/28 08:17:09;;;;;;;4.43;3.80;;;24.20;58.60;;;;;;5023884;28;20145;-69
2021/09/28 08:19:39;;;;;;;9.00;3.88;;;24.20;58.70;;;;;;5018845;28;20077;-68
2021/09/28 08:22:10;;;;;;;3.72;3.45;;;24.20;58.60;;;;;;5012905;28;20069;-68
2021/09/28 08:24:44;;;;;;;5.68;3.85;;;24.20;58.60;;;;;;5023843;28;20072;-67
2021/09/28 08:30:06;;;;;;;3.65;3.35;;;24.30;58.50;;;;;;5017392;28;20052;-67
2021/09/28 08:32:33;;;;;;;3.92;3.50;;;24.30;58.40;;;;;;5015959;28;20454;-67
2021/09/28 08:35:01;;;;;;;3.70;3.28;;;24.30;58.40;;;;;;5022472;28;20735;-70
2021/09/28 08:37:28;;;;;;;4.10;3.70;;;24.30;58.40;;;;;;5023813;28;20046;-72
2021/09/28 08:39:56;;;;;;;3.70;3.40;;;24.30;58.40;;;;;;5020362;28;20046;-68
2021/09/28 08:42:25;;;;;;;4.43;3.95;;;24.30;58.40;;;;;;5014484;28;20693;-70
2021/09/28 08:44:52;;;;;;;7.68;3.83;;;24.30;58.20;;;;;;5021863;28;20076;-69
2021/09/28 08:47:38;;;;;;;3.33;3.08;;;24.30;58.10;;;;;;5023640;28;20486;-69
2021/09/28 08:50:08;;;;;;;3.95;3.53;;;24.40;58.00;;;;;;5022405;28;20076;-72
2021/09/28 08:52:43;;;;;;;4.10;3.70;;;24.30;57.90;;;;;;5013417;28;20046;-71
2021/09/28 08:55:19;;;;;;;4.20;3.80;;;24.40;57.90;;;;;;5022147;28;20440;-68
2021/09/28 08:57:47;;;;;;;4.85;3.90;;;24.40;57.90;;;;;;5021056;28;20258;-71
2021/09/28 09:00:23;;;;;;;5.10;3.58;;;24.40;57.90;;;;;;5016323;28;20667;-71
2021/09/28 09:02:50;;;;;;;4.82;3.70;;;24.40;57.80;;;;;;5016434;28;20041;-72
2021/09/28 09:05:18;;;;;;;5.05;3.67;;;24.40;57.70;;;;;;5020653;28;20053;-71
2021/09/28 09:08:05;;;;;;;3.67;3.38;;;24.50;57.60;;;;;;5022845;28;20145;-73
2021/09/28 09:10:36;;;;;;;3.58;3.28;;;24.50;57.60;;;;;;5017111;28;20057;-70
2021/09/28 09:13:03;;;;;;;3.83;3.53;;;24.50;57.50;;;;;;5016133;28;20100;-70
2021/09/28 09:15:35;;;;;;;5.18;3.67;;;24.50;57.50;;;;;;5031588;28;20045;-70
2021/09/28 09:18:05;;;;;;;4.18;3.88;;;24.60;57.50;;;;;;5031988;28;20041;-71
2021/09/28 09:20:35;;;;;;;5.60;3.73;;;24.60;57.50;;;;;;5016950;28;20053;-71
2021/09/28 09:23:22;;;;;;;4.70;4.30;;;24.60;57.40;;;;;;5013928;28;20487;-71
2021/09/28 09:26:09;;;;;;;5.57;3.92;;;24.70;57.50;;;;;;5019432;28;20125;-72
2021/09/28 09:28:43;;;;;;;3.92;3.53;;;24.70;57.40;;;;;;5022796;28;20209;-71
2021/09/28 09:31:22;;;;;;;4.70;4.15;;;24.70;57.30;;;;;;5014556;28;20905;-72
2021/09/28 09:33:55;;;;;;;5.00;3.78;;;24.80;57.20;;;;;;5014176;28;20056;-73
2021/09/28 09:36:23;;;;;;;4.30;4.00;;;24.80;57.10;;;;;;5016159;28;20168;-72
2021/09/28 09:38:55;;;;;;;4.05;3.75;;;24.90;57.00;;;;;;5018261;28;20056;-71
2021/09/28 09:41:29;;;;;;;5.70;4.35;;;24.90;56.90;;;;;;5011969;28;20057;-71
2021/09/28 09:44:07;;;;;;;8.80;4.22;;;25.00;56.90;;;;;;5018799;28;20069;-71
2021/09/28 09:46:46;;;;;;;3.97;3.65;;;25.00;56.80;;;;;;5019638;28;20505;-70
2021/09/28 09:49:22;;;;;;;4.72;4.25;;;25.00;56.60;;;;;;5022680;28;20132;-69
2021/09/28 09:51:52;;;;;;;4.20;3.80;;;25.10;56.70;;;;;;5007921;28;20073;-70
2021/09/28 09:54:33;;;;;;;6.43;5.05;;;25.10;56.50;;;;;;5024473;28;20165;-65
2021/09/28 09:57:06;;;;;;;4.63;4.18;;;25.20;56.40;;;;;;5031433;28;20046;-68
2021/09/28 09:59:34;;;;;;;4.97;4.32;;;25.20;56.30;;;;;;5024363;28;20095;-70
2021/09/28 10:02:02;;;;;;;7.15;4.63;;;25.20;56.30;;;;;;5009245;28;20144;-71
2021/09/28 10:04:30;;;;;;;7.28;6.07;;;25.30;56.40;;;;;;5020215;28;20451;-72
2021/09/28 10:07:01;;;;;;;11.98;9.38;;;25.30;56.40;;;;;;5022132;28;20092;-74
2021/09/28 10:09:35;;;;;;;12.60;10.70;;;25.30;56.40;;;;;;5022951;28;20465;-73
2021/09/28 10:12:05;;;;;;;18.80;10.77;;;25.20;56.30;;;;;;5010004;28;20524;-74
2021/09/28 10:14:42;;;;;;;;;;;25.10;56.20;;;;;;5017658;28;20091;-73
2021/09/28 10:17:39;;;;;;;13.65;10.65;;;25.00;56.50;;;;;;5018783;28;19995;-74
2021/09/28 10:20:29;;;;;;;14.27;9.77;;;24.90;56.70;;;;;;5014091;28;20053;-75
2021/09/28 10:22:59;;;;;;;12.73;9.15;;;24.80;56.90;;;;;;5014424;28;20510;-74
2021/09/28 10:25:35;;;;;;;11.63;8.88;;;24.80;57.10;;;;;;5019030;28;20099;-74
2021/09/28 10:28:26;;;;;;;13.93;10.40;;;24.80;57.00;;;;;;5022797;28;20046;-74
2021/09/28 10:30:54;;;;;;;12.35;10.13;;;24.80;57.40;;;;;;5040301;28;20065;-74
2021/09/28 10:33:27;;;;;;;15.00;9.90;;;24.80;57.60;;;;;;5026447;28;20569;-75
2021/09/28 10:36:14;;;;;;;12.85;10.32;;;24.80;57.80;;;;;;5023014;28;20486;-75
2021/09/28 10:39:00;;;;;;;15.15;10.43;;;24.80;57.70;;;;;;5021279;28;20049;-75
2021/09/28 10:41:42;;;;;;;14.13;10.13;;;24.80;57.30;;;;;;5005197;28;20156;-77
2021/09/28 10:44:37;;;;;;;19.15;9.90;;;24.80;57.50;;;;;;5020843;28;20088;-76
2021/09/28 10:47:04;;;;;;;14.98;10.15;;;24.80;57.60;;;;;;5021736;28;20087;-77
2021/09/28 10:49:34;;;;;;;19.73;10.85;;;24.70;57.90;;;;;;5020606;28;20047;-75
2021/09/28 10:52:41;;;;;;;11.80;9.52;;;24.70;57.90;;;;;;5008789;28;20087;-73
2021/09/28 10:55:18;;;;;;;;;;;24.70;58.10;;;;;;5046954;28;20824;-75
2021/09/28 10:58:09;;;;;;;14.77;10.52;;;24.60;58.30;;;;;;5016547;28;19974;-76
2021/09/28 11:01:06;;;;;;;14.05;9.55;;;24.60;58.30;;;;;;5017066;28;20410;-71
2021/09/28 11:03:50;;;;;;;15.90;9.88;;;24.60;58.40;;;;;;5018151;28;20046;-67
2021/09/28 11:06:40;;;;;;;9.48;8.43;;;24.60;58.90;;;;;;5022226;28;20153;-67
2021/09/28 11:09:08;;;;;;;;;;;24.60;58.90;;;;;;5018935;28;20490;-70
2021/09/28 11:11:39;;;;;;;8.43;7.30;;;24.60;58.90;;;;;;5005883;28;19931;-68
2021/09/28 11:14:08;;;;;;;9.23;7.80;;;24.70;58.90;;;;;;5017827;28;20045;-71
2021/09/28 11:16:43;;;;;;;8.02;7.22;;;24.70;58.70;;;;;;5018899;28;20323;-68
2021/09/28 11:19:11;;;;;;;8.82;6.90;;;24.80;58.60;;;;;;5012211;28;20045;-65
2021/09/28 11:21:42;;;;;;;7.88;6.53;;;24.90;58.40;;;;;;5008321;28;20049;-68
2021/09/28 11:24:11;;;;;;;7.47;6.68;;;24.90;58.20;;;;;;5022423;28;20055;-68
2021/09/28 11:26:42;;;;;;;6.50;5.97;;;25.00;58.00;;;;;;5024060;28;21153;-69
2021/09/28 11:29:12;;;;;;;7.53;6.65;;;25.10;57.90;;;;;;5030525;28;20118;-68
2021/09/28 11:31:43;;;;;;;7.00;6.13;;;25.10;57.70;;;;;;5003969;28;20057;-67
2021/09/28 11:34:24;;;;;;;6.70;6.13;;;25.20;57.60;;;;;;5019876;28;20138;-69
2021/09/28 11:37:11;;;;;;;6.93;6.22;;;25.20;57.40;;;;;;5019943;28;20049;-68
2021/09/28 11:39:41;;;;;;;6.82;6.13;;;25.20;57.30;;;;;;5025304;28;20141;-68
2021/09/28 11:42:10;;;;;;;6.15;5.60;;;25.30;57.20;;;;;;5008238;28;20085;-71
2021/09/28 11:44:43;;;;;;;6.35;5.75;;;25.30;57.20;;;;;;5019429;28;20045;-68
2021/09/28 11:47:13;;;;;;;6.43;5.82;;;25.40;57.20;;;;;;5021317;28;20148;-68
2021/09/28 11:49:48;;;;;;;5.83;5.30;;;25.40;57.20;;;;;;5020684;28;20104;-67
2021/09/28 11:52:16;;;;;;;6.55;5.95;;;25.40;57.00;;;;;;5012081;28;20092;-65
2021/09/28 11:54:45;;;;;;;6.70;6.07;;;25.40;56.90;;;;;;5021456;28;20470;-67
2021/09/28 11:57:13;;;;;;;6.63;6.03;;;25.50;56.80;;;;;;5013571;28;20045;-67
2021/09/28 11:59:41;;;;;;;7.25;6.47;;;25.50;56.70;;;;;;5016953;28;20100;-69
2021/09/28 12:02:08;;;;;;;5.97;5.47;;;25.60;56.60;;;;;;5002719;28;20083;-67
2021/09/28 12:05:24;;;;;;;5.78;5.28;;;25.60;56.60;;;;;;5015396;28;21009;-71
2021/09/28 12:10:36;;;;;;;5.95;5.45;;;25.70;56.50;;;;;;5012045;28;20105;-68
2021/09/28 12:13:15;;;;;;;8.10;5.78;;;25.70;56.40;;;;;;5014133;28;20057;-67
2021/09/28 12:16:04;;;;;;;6.35;5.75;;;25.70;56.30;;;;;;5015281;28;20122;-67
2021/09/28 12:18:31;;;;;;;6.85;5.82;;;25.70;56.40;;;;;;5015237;28;20040;-67
2021/09/28 12:21:21;;;;;;;6.28;5.63;;;25.70;56.30;;;;;;5010311;28;20089;-69
2021/09/28 12:24:18;;;;;;;6.45;5.65;;;25.70;56.20;;;;;;5021208;28;20046;-68
2021/09/28 12:26:48;;;;;;;6.30;5.70;;;25.70;56.20;;;;;;5020177;28;20053;-68
2021/09/28 12:29:20;;;;;;;6.38;5.80;;;25.70;56.10;;;;;;5032164;28;20045;-68
2021/09/28 12:31:48;;;;;;;8.05;6.05;;;25.70;56.70;;;;;;5013061;28;21444;-68
2021/09/28 12:34:17;;;;;;;5.65;5.15;;;25.70;56.20;;;;;;5019730;28;20045;-68
2021/09/28 12:36:44;;;;;;;6.35;5.80;;;25.80;56.20;;;;;;5017959;28;20069;-68
2021/09/28 12:39:27;;;;;;;6.22;5.65;;;25.80;56.10;;;;;;5024224;28;20136;-69
2021/09/28 12:42:02;;;;;;;8.93;5.80;;;25.80;55.90;;;;;;5011560;28;20498;-68
2021/09/28 12:44:30;;;;;;;5.85;5.35;;;25.70;55.80;;;;;;5019624;28;20132;-68
2021/09/28 12:46:58;;;;;;;8.77;6.40;;;25.70;55.80;;;;;;5019374;28;20046;-67
2021/09/28 12:49:30;;;;;;;6.88;6.18;;;25.70;55.80;;;;;;5025462;28;20053;-68
2021/09/28 12:51:59;;;;;;;6.72;5.68;;;25.70;55.80;;;;;;5012562;28;20095;-67
2021/09/28 12:54:28;;;;;;;7.70;6.03;;;25.70;55.80;;;;;;5022806;28;20139;-68
2021/09/28 12:56:55;;;;;;;6.60;5.97;;;25.80;55.80;;;;;;5032572;28;20053;-68
2021/09/28 12:59:23;;;;;;;6.65;6.05;;;25.70;55.70;;;;;;5028852;28;20046;-68
2021/09/28 13:01:50;;;;;;;6.95;6.35;;;25.80;55.60;;;;;;5018314;28;20492;-67
2021/09/28 13:04:18;;;;;;;6.93;6.28;;;25.80;55.50;;;;;;5027229;28;20045;-70
2021/09/28 13:06:48;;;;;;;7.28;6.60;;;25.80;55.40;;;;;;5021369;28;20053;-75